sensor_id;sensor_type;location;lat;lon;timestamp;temperature;humidity
5759;DHT22;2904;48.788;9.196;2022-09-03T00:01:57;17.90;99.90
5759;DHT22;2904;48.788;9.196;2022-09-03T00:04:40;17.90;99.90
5759;DHT22;2904;48.788;9.196;2022-09-03T00:07:19;17.90;99.90
5759;DHT22;2904;48.788;9.196;2022-09-03T00:09:50;17.90;99.90
5759;DHT22;2904;48.788;9.196;2022-09-03T00:12:30;17.90;99.90
5759;DHT22;2904;48.788;9.196;2022-09-03T00:15:09;17.90;99.90
5759;DHT22;2904;48.788;9.196;2022-09-03T00:17:47;17.90;99.90
5759;DHT22;2904;48.788;9.196;2022-09-03T00:20:19;18.00;99.90
5759;DHT22;2904;48.788;9.196;2022-09-03T00:22:50;18.00;99.90
5759;DHT22;2904;48.788;9.196;2022-09-03T00:26:49;18.00;99.90
5759;DHT22;2904;48.788;9.196;2022-09-03T00:29:22;18.10;99.90
5759;DHT22;2904;48.788;9.196;2022-09-03T00:31:59;18.10;99.90
5759;DHT22;2904;48.788;9.196;2022-09-03T00:34:39;18.10;99.90
5759;DHT22;2904;48.788;9.196;2022-09-03T00:37:09;18.10;99.90
5759;DHT22;2904;48.788;9.196;2022-09-03T00:39:36;18.20;99.90
5759;DHT22;2904;48.788;9.196;2022-09-03T00:46:54;18.20;99.90
5759;DHT22;2904;48.788;9.196;2022-09-03T00:50:08;18.30;99.90
5759;DHT22;2904;48.788;9.196;2022-09-03T00:53:48;18.30;99.90
5759;DHT22;2904;48.788;9.196;2022-09-03T00:56:36;18.30;99.90
5759;DHT22;2904;48.788;9.196;2022-09-03T01:00:38;18.30;99.90
5759;DHT22;2904;48.788;9.196;2022-09-03T01:03:13;18.30;99.90
5759;DHT22;2904;48.788;9.196;2022-09-03T01:06:08;18.20;99.90
5759;DHT22;2904;48.788;9.196;2022-09-03T01:14:31;18.30;99.90
5759;DHT22;2904;48.788;9.196;2022-09-03T01:24:55;18.20;99.90
5759;DHT22;2904;48.788;9.196;2022-09-03T01:31:06;18.30;99.90
5759;DHT22;2904;48.788;9.196;2022-09-03T01:33:40;18.20;99.90
5759;DHT22;2904;48.788;9.196;2022-09-03T01:42:10;18.20;99.90
5759;DHT22;2904;48.788;9.196;2022-09-03T01:46:02;18.20;99.90
5759;DHT22;2904;48.788;9.196;2022-09-03T01:48:43;18.20;99.90
5759;DHT22;2904;48.788;9.196;2022-09-03T01:51:26;18.20;99.90
5759;DHT22;2904;48.788;9.196;2022-09-03T01:54:21;18.20;99.90
5759;DHT22;2904;48.788;9.196;2022-09-03T02:02:17;18.20;99.90
5759;DHT22;2904;48.788;9.196;2022-09-03T02:05:05;18.20;99.90
5759;DHT22;2904;48.788;9.196;2022-09-03T02:07:38;18.20;99.90
5759;DHT22;2904;48.788;9.196;2022-09-03T02:10:07;18.20;99.90
5759;DHT22;2904;48.788;9.196;2022-09-03T02:12:35;18.20;99.90
5759;DHT22;2904;48.788;9.196;2022-09-03T02:15:06;18.20;99.90
5759;DHT22;2904;48.788;9.196;2022-09-03T02:17:33;18.30;99.90
5759;DHT22;2904;48.788;9.196;2022-09-03T02:20:04;18.20;99.90
5759;DHT22;2904;48.788;9.196;2022-09-03T02:22:31;18.20;99.90
5759;DHT22;2904;48.788;9.196;2022-09-03T02:24:58;18.20;99.90
5759;DHT22;2904;48.788;9.196;2022-09-03T02:27:24;18.30;99.90
5759;DHT22;2904;48.788;9.196;2022-09-03T02:29:50;18.30;99.90
5759;DHT22;2904;48.788;9.196;2022-09-03T02:32:16;18.30;99.90
5759;DHT22;2904;48.788;9.196;2022-09-03T02:34:42;18.30;99.90
5759;DHT22;2904;48.788;9.196;2022-09-03T02:37:16;18.30;99.90
5759;DHT22;2904;48.788;9.196;2022-09-03T02:39:43;18.30;99.90
5759;DHT22;2904;48.788;9.196;2022-09-03T02:42:10;18.30;99.90
5759;DHT22;2904;48.788;9.196;2022-09-03T02:44:47;18.30;99.90
5759;DHT22;2904;48.788;9.196;2022-09-03T02:47:13;18.20;99.90
5759;DHT22;2904;48.788;9.196;2022-09-03T02:49:39;18.10;99.90
5759;DHT22;2904;48.788;9.196;2022-09-03T02:52:07;18.10;99.90
5759;DHT22;2904;48.788;9.196;2022-09-03T02:54:37;18.10;99.90
5759;DHT22;2904;48.788;9.196;2022-09-03T02:57:07;18.00;99.90
5759;DHT22;2904;48.788;9.196;2022-09-03T02:59:34;18.00;99.90
5759;DHT22;2904;48.788;9.196;2022-09-03T03:02:00;18.00;99.90
5759;DHT22;2904;48.788;9.196;2022-09-03T03:04:27;18.00;99.90
5759;DHT22;2904;48.788;9.196;2022-09-03T03:06:52;17.90;99.90
5759;DHT22;2904;48.788;9.196;2022-09-03T03:09:18;17.90;99.90
5759;DHT22;2904;48.788;9.196;2022-09-03T03:11:44;17.80;99.90
5759;DHT22;2904;48.788;9.196;2022-09-03T03:14:09;17.80;99.90
5759;DHT22;2904;48.788;9.196;2022-09-03T03:16:36;17.80;99.90
5759;DHT22;2904;48.788;9.196;2022-09-03T03:19:01;17.80;99.90
5759;DHT22;2904;48.788;9.196;2022-09-03T03:21:27;17.70;99.90
5759;DHT22;2904;48.788;9.196;2022-09-03T03:23:53;17.70;99.90
5759;DHT22;2904;48.788;9.196;2022-09-03T03:26:20;17.80;99.90
5759;DHT22;2904;48.788;9.196;2022-09-03T03:28:50;17.80;99.90
5759;DHT22;2904;48.788;9.196;2022-09-03T03:31:21;17.70;99.90
5759;DHT22;2904;48.788;9.196;2022-09-03T03:33:51;17.70;99.90
5759;DHT22;2904;48.788;9.196;2022-09-03T03:36:17;17.70;99.90
5759;DHT22;2904;48.788;9.196;2022-09-03T03:38:44;17.70;99.90
5759;DHT22;2904;48.788;9.196;2022-09-03T03:41:18;17.70;99.90
5759;DHT22;2904;48.788;9.196;2022-09-03T03:43:46;17.70;99.90
5759;DHT22;2904;48.788;9.196;2022-09-03T03:46:12;17.70;99.90
5759;DHT22;2904;48.788;9.196;2022-09-03T03:48:39;17.70;99.90
5759;DHT22;2904;48.788;9.196;2022-09-03T03:51:07;17.70;99.90
5759;DHT22;2904;48.788;9.196;2022-09-03T03:53:35;17.70;99.90
5759;DHT22;2904;48.788;9.196;2022-09-03T03:56:05;17.70;99.90
5759;DHT22;2904;48.788;9.196;2022-09-03T03:58:32;17.70;99.90
5759;DHT22;2904;48.788;9.196;2022-09-03T04:01:06;17.70;99.90
5759;DHT22;2904;48.788;9.196;2022-09-03T04:03:33;17.70;99.90
5759;DHT22;2904;48.788;9.196;2022-09-03T04:05:59;17.70;99.90
5759;DHT22;2904;48.788;9.196;2022-09-03T04:08:28;17.70;99.90
5759;DHT22;2904;48.788;9.196;2022-09-03T04:10:59;17.70;99.90
5759;DHT22;2904;48.788;9.196;2022-09-03T04:13:28;17.70;99.90
5759;DHT22;2904;48.788;9.196;2022-09-03T04:16:00;17.60;99.90
5759;DHT22;2904;48.788;9.196;2022-09-03T04:18:26;17.70;99.90
5759;DHT22;2904;48.788;9.196;2022-09-03T04:20:51;17.70;99.90
5759;DHT22;2904;48.788;9.196;2022-09-03T04:23:17;17.70;99.90
5759;DHT22;2904;48.788;9.196;2022-09-03T04:25:43;17.70;99.90
5759;DHT22;2904;48.788;9.196;2022-09-03T04:28:09;17.70;99.90
5759;DHT22;2904;48.788;9.196;2022-09-03T04:30:36;17.70;99.90
5759;DHT22;2904;48.788;9.196;2022-09-03T04:33:02;17.70;99.90
5759;DHT22;2904;48.788;9.196;2022-09-03T04:35:27;17.70;99.90
5759;DHT22;2904;48.788;9.196;2022-09-03T04:37:58;17.70;99.90
5759;DHT22;2904;48.788;9.196;2022-09-03T04:40:24;17.80;99.90
5759;DHT22;2904;48.788;9.196;2022-09-03T04:42:49;17.70;99.90
5759;DHT22;2904;48.788;9.196;2022-09-03T04:45:16;17.70;99.90
5759;DHT22;2904;48.788;9.196;2022-09-03T04:47:55;17.70;99.90
5759;DHT22;2904;48.788;9.196;2022-09-03T04:50:21;17.60;99.90
5759;DHT22;2904;48.788;9.196;2022-09-03T04:52:48;17.30;99.90
5759;DHT22;2904;48.788;9.196;2022-09-03T04:55:13;17.60;99.90
5759;DHT22;2904;48.788;9.196;2022-09-03T04:57:39;17.60;99.90
5759;DHT22;2904;48.788;9.196;2022-09-03T05:00:08;17.60;99.90
5759;DHT22;2904;48.788;9.196;2022-09-03T05:02:36;17.60;99.90
5759;DHT22;2904;48.788;9.196;2022-09-03T05:05:02;17.60;99.90
5759;DHT22;2904;48.788;9.196;2022-09-03T05:07:29;17.60;99.90
5759;DHT22;2904;48.788;9.196;2022-09-03T05:10:07;17.60;99.90
5759;DHT22;2904;48.788;9.196;2022-09-03T05:12:34;17.70;99.90
5759;DHT22;2904;48.788;9.196;2022-09-03T05:14:59;17.70;99.90
5759;DHT22;2904;48.788;9.196;2022-09-03T05:17:28;17.70;99.90
5759;DHT22;2904;48.788;9.196;2022-09-03T05:19:54;17.70;99.90
5759;DHT22;2904;48.788;9.196;2022-09-03T05:22:19;17.70;99.90
5759;DHT22;2904;48.788;9.196;2022-09-03T05:24:48;17.70;99.90
5759;DHT22;2904;48.788;9.196;2022-09-03T05:27:14;17.80;99.90
5759;DHT22;2904;48.788;9.196;2022-09-03T05:29:43;17.80;99.90
5759;DHT22;2904;48.788;9.196;2022-09-03T05:32:10;17.80;99.90
5759;DHT22;2904;48.788;9.196;2022-09-03T05:34:38;17.90;99.90
5759;DHT22;2904;48.788;9.196;2022-09-03T05:37:03;17.90;99.90
5759;DHT22;2904;48.788;9.196;2022-09-03T05:39:29;18.00;99.90
5759;DHT22;2904;48.788;9.196;2022-09-03T05:41:54;18.00;99.90
5759;DHT22;2904;48.788;9.196;2022-09-03T05:44:20;18.00;99.90
5759;DHT22;2904;48.788;9.196;2022-09-03T05:46:49;18.10;99.90
5759;DHT22;2904;48.788;9.196;2022-09-03T05:49:16;18.10;99.90
5759;DHT22;2904;48.788;9.196;2022-09-03T05:51:41;18.10;99.90
5759;DHT22;2904;48.788;9.196;2022-09-03T05:54:09;18.20;99.90
5759;DHT22;2904;48.788;9.196;2022-09-03T05:56:37;18.20;99.90
5759;DHT22;2904;48.788;9.196;2022-09-03T05:59:06;18.20;99.90
5759;DHT22;2904;48.788;9.196;2022-09-03T06:01:44;18.30;99.90
5759;DHT22;2904;48.788;9.196;2022-09-03T06:04:13;18.30;99.90
5759;DHT22;2904;48.788;9.196;2022-09-03T06:06:40;18.40;99.90
5759;DHT22;2904;48.788;9.196;2022-09-03T06:09:13;18.40;99.90
5759;DHT22;2904;48.788;9.196;2022-09-03T06:11:40;18.40;99.90
5759;DHT22;2904;48.788;9.196;2022-09-03T06:14:08;18.40;99.90
5759;DHT22;2904;48.788;9.196;2022-09-03T06:16:37;18.40;99.90
5759;DHT22;2904;48.788;9.196;2022-09-03T06:19:03;18.40;99.90
5759;DHT22;2904;48.788;9.196;2022-09-03T06:21:34;18.40;99.90
5759;DHT22;2904;48.788;9.196;2022-09-03T06:24:01;18.40;99.90
5759;DHT22;2904;48.788;9.196;2022-09-03T06:26:28;18.40;99.90
5759;DHT22;2904;48.788;9.196;2022-09-03T06:28:54;18.50;99.90
5759;DHT22;2904;48.788;9.196;2022-09-03T06:31:21;18.50;99.90
5759;DHT22;2904;48.788;9.196;2022-09-03T06:33:47;18.60;99.90
5759;DHT22;2904;48.788;9.196;2022-09-03T06:36:16;18.70;99.90
5759;DHT22;2904;48.788;9.196;2022-09-03T06:38:42;18.70;99.90
5759;DHT22;2904;48.788;9.196;2022-09-03T06:41:13;18.00;99.90
5759;DHT22;2904;48.788;9.196;2022-09-03T06:43:41;18.90;99.90
5759;DHT22;2904;48.788;9.196;2022-09-03T06:46:10;18.90;99.90
5759;DHT22;2904;48.788;9.196;2022-09-03T06:48:37;19.00;99.90
5759;DHT22;2904;48.788;9.196;2022-09-03T06:51:07;19.00;99.90
5759;DHT22;2904;48.788;9.196;2022-09-03T06:53:37;18.90;99.90
5759;DHT22;2904;48.788;9.196;2022-09-03T06:56:05;18.90;99.90
5759;DHT22;2904;48.788;9.196;2022-09-03T06:58:33;19.00;99.90
5759;DHT22;2904;48.788;9.196;2022-09-03T07:01:04;19.00;99.90
5759;DHT22;2904;48.788;9.196;2022-09-03T07:03:33;19.10;99.90
5759;DHT22;2904;48.788;9.196;2022-09-03T07:06:01;19.20;99.90
5759;DHT22;2904;48.788;9.196;2022-09-03T07:08:27;19.30;99.90
5759;DHT22;2904;48.788;9.196;2022-09-03T07:10:54;19.30;99.90
5759;DHT22;2904;48.788;9.196;2022-09-03T07:13:19;19.40;99.90
5759;DHT22;2904;48.788;9.196;2022-09-03T07:15:45;19.40;99.90
5759;DHT22;2904;48.788;9.196;2022-09-03T07:18:11;19.50;99.90
5759;DHT22;2904;48.788;9.196;2022-09-03T07:20:36;19.50;99.90
5759;DHT22;2904;48.788;9.196;2022-09-03T07:23:02;19.50;99.90
5759;DHT22;2904;48.788;9.196;2022-09-03T07:25:28;19.40;99.90
5759;DHT22;2904;48.788;9.196;2022-09-03T07:27:55;19.40;99.90
5759;DHT22;2904;48.788;9.196;2022-09-03T07:30:21;19.50;99.90
5759;DHT22;2904;48.788;9.196;2022-09-03T07:32:47;19.50;99.90
5759;DHT22;2904;48.788;9.196;2022-09-03T07:35:16;19.50;99.90
5759;DHT22;2904;48.788;9.196;2022-09-03T07:37:43;19.50;99.90
5759;DHT22;2904;48.788;9.196;2022-09-03T07:40:09;19.50;99.90
5759;DHT22;2904;48.788;9.196;2022-09-03T07:42:36;19.60;99.90
5759;DHT22;2904;48.788;9.196;2022-09-03T07:45:07;19.70;99.90
5759;DHT22;2904;48.788;9.196;2022-09-03T07:47:35;19.80;99.90
5759;DHT22;2904;48.788;9.196;2022-09-03T07:50:02;19.90;99.90
5759;DHT22;2904;48.788;9.196;2022-09-03T07:52:29;20.10;99.90
5759;DHT22;2904;48.788;9.196;2022-09-03T07:54:54;20.20;99.90
5759;DHT22;2904;48.788;9.196;2022-09-03T07:57:20;21.00;99.90
5759;DHT22;2904;48.788;9.196;2022-09-03T07:59:45;20.40;99.90
5759;DHT22;2904;48.788;9.196;2022-09-03T08:02:12;20.50;99.90
5759;DHT22;2904;48.788;9.196;2022-09-03T08:04:37;20.60;99.90
5759;DHT22;2904;48.788;9.196;2022-09-03T08:07:04;20.70;99.90
5759;DHT22;2904;48.788;9.196;2022-09-03T08:09:29;20.70;99.90
5759;DHT22;2904;48.788;9.196;2022-09-03T08:11:57;20.70;99.90
5759;DHT22;2904;48.788;9.196;2022-09-03T08:14:23;20.70;99.90
5759;DHT22;2904;48.788;9.196;2022-09-03T08:16:49;20.80;99.90
5759;DHT22;2904;48.788;9.196;2022-09-03T08:19:16;20.90;99.90
5759;DHT22;2904;48.788;9.196;2022-09-03T08:21:42;21.00;99.90
5759;DHT22;2904;48.788;9.196;2022-09-03T08:24:09;21.20;99.90
5759;DHT22;2904;48.788;9.196;2022-09-03T08:26:37;21.20;99.90
5759;DHT22;2904;48.788;9.196;2022-09-03T08:29:04;21.20;99.90
5759;DHT22;2904;48.788;9.196;2022-09-03T08:31:30;21.20;99.90
5759;DHT22;2904;48.788;9.196;2022-09-03T08:33:58;21.30;99.90
5759;DHT22;2904;48.788;9.196;2022-09-03T08:36:29;21.50;99.90
5759;DHT22;2904;48.788;9.196;2022-09-03T08:38:57;21.70;99.90
5759;DHT22;2904;48.788;9.196;2022-09-03T08:43:05;21.90;99.90
5759;DHT22;2904;48.788;9.196;2022-09-03T08:45:36;22.50;99.90
5759;DHT22;2904;48.788;9.196;2022-09-03T08:48:09;22.60;99.90
5759;DHT22;2904;48.788;9.196;2022-09-03T08:50:44;22.60;99.90
5759;DHT22;2904;48.788;9.196;2022-09-03T08:53:50;22.70;99.90
5759;DHT22;2904;48.788;9.196;2022-09-03T08:56:30;22.80;99.90
5759;DHT22;2904;48.788;9.196;2022-09-03T08:58:56;22.70;99.90
5759;DHT22;2904;48.788;9.196;2022-09-03T09:02:22;22.60;99.90
5759;DHT22;2904;48.788;9.196;2022-09-03T09:05:11;22.40;99.90
5759;DHT22;2904;48.788;9.196;2022-09-03T09:08:02;22.40;99.90
5759;DHT22;2904;48.788;9.196;2022-09-03T09:10:57;22.30;99.90
5759;DHT22;2904;48.788;9.196;2022-09-03T09:17:12;22.30;99.90
5759;DHT22;2904;48.788;9.196;2022-09-03T09:20:54;22.20;99.90
5759;DHT22;2904;48.788;9.196;2022-09-03T09:23:32;22.10;99.90
5759;DHT22;2904;48.788;9.196;2022-09-03T09:26:06;22.10;99.90
5759;DHT22;2904;48.788;9.196;2022-09-03T09:28:37;22.10;99.90
5759;DHT22;2904;48.788;9.196;2022-09-03T09:31:08;22.00;99.90
5759;DHT22;2904;48.788;9.196;2022-09-03T09:33:36;21.90;99.90
5759;DHT22;2904;48.788;9.196;2022-09-03T09:36:08;21.80;99.90
5759;DHT22;2904;48.788;9.196;2022-09-03T09:38:37;21.80;99.90
5759;DHT22;2904;48.788;9.196;2022-09-03T09:41:17;21.60;99.90
5759;DHT22;2904;48.788;9.196;2022-09-03T09:43:59;21.90;99.90
5759;DHT22;2904;48.788;9.196;2022-09-03T09:46:35;22.20;99.90
5759;DHT22;2904;48.788;9.196;2022-09-03T09:49:01;22.40;99.90
5759;DHT22;2904;48.788;9.196;2022-09-03T09:51:29;22.50;99.90
5759;DHT22;2904;48.788;9.196;2022-09-03T09:54:15;22.70;99.90
5759;DHT22;2904;48.788;9.196;2022-09-03T09:56:45;22.90;99.90
5759;DHT22;2904;48.788;9.196;2022-09-03T09:59:13;23.10;99.90
5759;DHT22;2904;48.788;9.196;2022-09-03T10:01:44;23.10;99.90
5759;DHT22;2904;48.788;9.196;2022-09-03T10:04:25;23.10;99.90
5759;DHT22;2904;48.788;9.196;2022-09-03T10:06:59;22.90;99.90
5759;DHT22;2904;48.788;9.196;2022-09-03T10:09:28;22.90;99.90
5759;DHT22;2904;48.788;9.196;2022-09-03T10:12:27;22.80;99.90
5759;DHT22;2904;48.788;9.196;2022-09-03T10:16:47;22.80;99.90
5759;DHT22;2904;48.788;9.196;2022-09-03T10:19:18;23.00;99.90
5759;DHT22;2904;48.788;9.196;2022-09-03T10:22:08;23.10;99.90
5759;DHT22;2904;48.788;9.196;2022-09-03T10:24:46;23.10;99.90
5759;DHT22;2904;48.788;9.196;2022-09-03T10:27:16;23.20;99.90
5759;DHT22;2904;48.788;9.196;2022-09-03T10:29:43;23.30;99.90
5759;DHT22;2904;48.788;9.196;2022-09-03T10:32:31;23.30;99.90
5759;DHT22;2904;48.788;9.196;2022-09-03T10:35:17;23.20;99.90
5759;DHT22;2904;48.788;9.196;2022-09-03T10:38:26;23.10;99.90
5759;DHT22;2904;48.788;9.196;2022-09-03T10:44:17;23.10;99.90
5759;DHT22;2904;48.788;9.196;2022-09-03T10:56:46;22.90;99.90
5759;DHT22;2904;48.788;9.196;2022-09-03T11:00:12;23.20;99.90
5759;DHT22;2904;48.788;9.196;2022-09-03T11:03:36;23.30;99.90
5759;DHT22;2904;48.788;9.196;2022-09-03T11:06:29;23.50;99.90
5759;DHT22;2904;48.788;9.196;2022-09-03T11:09:52;23.60;99.90
5759;DHT22;2904;48.788;9.196;2022-09-03T11:12:26;23.80;99.90
5759;DHT22;2904;48.788;9.196;2022-09-03T11:15:03;23.80;99.90
5759;DHT22;2904;48.788;9.196;2022-09-03T11:17:41;23.70;99.90
5759;DHT22;2904;48.788;9.196;2022-09-03T11:20:28;23.70;99.90
5759;DHT22;2904;48.788;9.196;2022-09-03T11:23:02;23.70;99.90
5759;DHT22;2904;48.788;9.196;2022-09-03T11:25:33;23.70;99.90
5759;DHT22;2904;48.788;9.196;2022-09-03T11:31:51;23.70;99.90
5759;DHT22;2904;48.788;9.196;2022-09-03T11:34:43;23.60;99.90
5759;DHT22;2904;48.788;9.196;2022-09-03T11:37:24;23.70;99.90
5759;DHT22;2904;48.788;9.196;2022-09-03T11:40:34;23.70;99.90
5759;DHT22;2904;48.788;9.196;2022-09-03T11:43:23;23.80;99.90
5759;DHT22;2904;48.788;9.196;2022-09-03T11:49:12;23.60;99.90
5759;DHT22;2904;48.788;9.196;2022-09-03T11:51:59;23.50;99.90
5759;DHT22;2904;48.788;9.196;2022-09-03T11:54:25;23.40;99.90
5759;DHT22;2904;48.788;9.196;2022-09-03T11:57:11;23.30;99.90
5759;DHT22;2904;48.788;9.196;2022-09-03T11:59:39;23.20;99.90
5759;DHT22;2904;48.788;9.196;2022-09-03T12:02:28;23.00;99.90
5759;DHT22;2904;48.788;9.196;2022-09-03T12:05:20;22.90;99.90
5759;DHT22;2904;48.788;9.196;2022-09-03T12:08:14;22.80;99.90
5759;DHT22;2904;48.788;9.196;2022-09-03T12:11:27;22.70;99.90
5759;DHT22;2904;48.788;9.196;2022-09-03T12:14:24;22.60;99.90
5759;DHT22;2904;48.788;9.196;2022-09-03T12:17:18;22.50;99.90
5759;DHT22;2904;48.788;9.196;2022-09-03T12:19:52;22.30;99.90
5759;DHT22;2904;48.788;9.196;2022-09-03T12:22:21;22.30;99.90
5759;DHT22;2904;48.788;9.196;2022-09-03T12:24:48;22.20;99.90
5759;DHT22;2904;48.788;9.196;2022-09-03T12:27:25;22.20;99.90
5759;DHT22;2904;48.788;9.196;2022-09-03T12:29:59;22.10;99.90
5759;DHT22;2904;48.788;9.196;2022-09-03T12:32:30;22.10;99.90
5759;DHT22;2904;48.788;9.196;2022-09-03T12:34:57;22.00;99.90
5759;DHT22;2904;48.788;9.196;2022-09-03T12:37:25;22.00;99.90
5759;DHT22;2904;48.788;9.196;2022-09-03T12:39:53;21.90;99.90
5759;DHT22;2904;48.788;9.196;2022-09-03T12:42:25;21.70;99.90
5759;DHT22;2904;48.788;9.196;2022-09-03T12:44:51;21.60;99.90
5759;DHT22;2904;48.788;9.196;2022-09-03T12:47:20;21.40;99.90
5759;DHT22;2904;48.788;9.196;2022-09-03T12:49:51;21.10;99.90
5759;DHT22;2904;48.788;9.196;2022-09-03T12:52:54;20.80;99.90
5759;DHT22;2904;48.788;9.196;2022-09-03T12:55:36;20.50;99.90
5759;DHT22;2904;48.788;9.196;2022-09-03T12:58:32;20.30;99.90
5759;DHT22;2904;48.788;9.196;2022-09-03T13:01:12;20.00;99.90
5759;DHT22;2904;48.788;9.196;2022-09-03T13:03:47;19.90;99.90
5759;DHT22;2904;48.788;9.196;2022-09-03T13:06:18;19.50;99.90
5759;DHT22;2904;48.788;9.196;2022-09-03T13:08:47;19.30;99.90
5759;DHT22;2904;48.788;9.196;2022-09-03T13:11:20;19.20;99.90
5759;DHT22;2904;48.788;9.196;2022-09-03T13:17:27;19.10;99.90
5759;DHT22;2904;48.788;9.196;2022-09-03T13:20:28;19.00;99.90
5759;DHT22;2904;48.788;9.196;2022-09-03T13:23:15;18.90;99.90
5759;DHT22;2904;48.788;9.196;2022-09-03T13:26:05;18.90;99.90
5759;DHT22;2904;48.788;9.196;2022-09-03T13:28:56;19.00;99.90
5759;DHT22;2904;48.788;9.196;2022-09-03T13:31:43;19.20;99.90
5759;DHT22;2904;48.788;9.196;2022-09-03T13:34:51;19.30;99.90
5759;DHT22;2904;48.788;9.196;2022-09-03T13:37:46;19.60;99.90
5759;DHT22;2904;48.788;9.196;2022-09-03T13:43:36;20.40;99.90
5759;DHT22;2904;48.788;9.196;2022-09-03T13:48:00;20.80;99.90
5759;DHT22;2904;48.788;9.196;2022-09-03T13:50:52;21.40;99.90
5759;DHT22;2904;48.788;9.196;2022-09-03T13:57:48;21.80;99.90
5759;DHT22;2904;48.788;9.196;2022-09-03T14:00:33;21.80;99.90
5759;DHT22;2904;48.788;9.196;2022-09-03T14:03:11;21.70;99.90
5759;DHT22;2904;48.788;9.196;2022-09-03T14:05:54;21.70;99.90
5759;DHT22;2904;48.788;9.196;2022-09-03T14:09:57;21.70;99.90
5759;DHT22;2904;48.788;9.196;2022-09-03T14:12:45;21.80;99.90
5759;DHT22;2904;48.788;9.196;2022-09-03T14:15:21;22.20;99.90
5759;DHT22;2904;48.788;9.196;2022-09-03T14:18:07;22.50;99.90
5759;DHT22;2904;48.788;9.196;2022-09-03T14:20:57;22.70;99.90
5759;DHT22;2904;48.788;9.196;2022-09-03T14:23:44;23.20;99.90
5759;DHT22;2904;48.788;9.196;2022-09-03T14:26:27;24.10;99.90
5759;DHT22;2904;48.788;9.196;2022-09-03T14:33:36;25.90;99.90
5759;DHT22;2904;48.788;9.196;2022-09-03T14:36:26;26.40;99.90
5759;DHT22;2904;48.788;9.196;2022-09-03T14:39:14;25.60;99.90
5759;DHT22;2904;48.788;9.196;2022-09-03T14:43:10;25.20;99.90
5759;DHT22;2904;48.788;9.196;2022-09-03T14:45:51;25.20;99.90
5759;DHT22;2904;48.788;9.196;2022-09-03T14:49:13;25.30;99.90
5759;DHT22;2904;48.788;9.196;2022-09-03T15:07:50;23.20;99.90
5759;DHT22;2904;48.788;9.196;2022-09-03T15:13:24;25.20;99.90
5759;DHT22;2904;48.788;9.196;2022-09-03T15:20:24;28.00;99.90
5759;DHT22;2904;48.788;9.196;2022-09-03T15:23:24;30.70;99.90
5759;DHT22;2904;48.788;9.196;2022-09-03T15:39:04;26.70;99.90
5759;DHT22;2904;48.788;9.196;2022-09-03T15:41:47;27.70;99.90
5759;DHT22;2904;48.788;9.196;2022-09-03T15:44:17;29.30;99.90
5759;DHT22;2904;48.788;9.196;2022-09-03T15:49:58;30.70;99.90
5759;DHT22;2904;48.788;9.196;2022-09-03T15:52:31;31.90;99.90
5759;DHT22;2904;48.788;9.196;2022-09-03T15:55:14;30.70;99.90
5759;DHT22;2904;48.788;9.196;2022-09-03T16:03:30;28.50;99.90
5759;DHT22;2904;48.788;9.196;2022-09-03T16:06:02;26.70;99.90
5759;DHT22;2904;48.788;9.196;2022-09-03T16:10:07;25.80;99.90
5759;DHT22;2904;48.788;9.196;2022-09-03T16:13:00;25.50;99.90
5759;DHT22;2904;48.788;9.196;2022-09-03T16:15:37;26.30;99.90
5759;DHT22;2904;48.788;9.196;2022-09-03T16:18:23;26.80;99.90
5759;DHT22;2904;48.788;9.196;2022-09-03T16:21:08;26.60;99.90
5759;DHT22;2904;48.788;9.196;2022-09-03T16:23:58;26.20;99.90
5759;DHT22;2904;48.788;9.196;2022-09-03T16:26:41;25.50;99.90
5759;DHT22;2904;48.788;9.196;2022-09-03T16:29:14;24.80;99.90
5759;DHT22;2904;48.788;9.196;2022-09-03T16:32:11;24.60;99.90
5759;DHT22;2904;48.788;9.196;2022-09-03T16:35:17;23.80;99.90
5759;DHT22;2904;48.788;9.196;2022-09-03T16:38:20;23.30;99.90
5759;DHT22;2904;48.788;9.196;2022-09-03T16:41:23;23.10;99.90
5759;DHT22;2904;48.788;9.196;2022-09-03T16:44:08;23.00;99.90
5759;DHT22;2904;48.788;9.196;2022-09-03T16:46:54;22.80;99.90
5759;DHT22;2904;48.788;9.196;2022-09-03T16:51:07;22.70;99.90
5759;DHT22;2904;48.788;9.196;2022-09-03T16:53:58;22.70;99.90
5759;DHT22;2904;48.788;9.196;2022-09-03T16:56:53;22.70;99.90
5759;DHT22;2904;48.788;9.196;2022-09-03T17:01:23;22.60;99.90
5759;DHT22;2904;48.788;9.196;2022-09-03T17:04:18;22.50;99.90
5759;DHT22;2904;48.788;9.196;2022-09-03T17:07:13;22.50;99.90
5759;DHT22;2904;48.788;9.196;2022-09-03T17:10:02;22.40;99.90
5759;DHT22;2904;48.788;9.196;2022-09-03T17:13:03;22.40;99.90
5759;DHT22;2904;48.788;9.196;2022-09-03T17:15:50;22.50;99.90
5759;DHT22;2904;48.788;9.196;2022-09-03T17:19:44;22.50;99.90
5759;DHT22;2904;48.788;9.196;2022-09-03T17:23:59;22.30;99.90
5759;DHT22;2904;48.788;9.196;2022-09-03T17:27:04;22.20;99.90
5759;DHT22;2904;48.788;9.196;2022-09-03T17:30:02;22.00;99.90
5759;DHT22;2904;48.788;9.196;2022-09-03T17:39:57;21.90;99.90
5759;DHT22;2904;48.788;9.196;2022-09-03T17:43:39;23.30;99.90
5759;DHT22;2904;48.788;9.196;2022-09-03T17:52:29;19.10;99.90
5759;DHT22;2904;48.788;9.196;2022-09-03T17:55:20;21.20;99.90
5759;DHT22;2904;48.788;9.196;2022-09-03T17:58:07;21.00;99.90
5759;DHT22;2904;48.788;9.196;2022-09-03T18:03:55;20.90;99.90
5759;DHT22;2904;48.788;9.196;2022-09-03T18:06:55;20.80;99.90
5759;DHT22;2904;48.788;9.196;2022-09-03T18:12:51;20.60;99.90
5759;DHT22;2904;48.788;9.196;2022-09-03T18:17:00;20.50;99.90
5759;DHT22;2904;48.788;9.196;2022-09-03T18:19:43;21.30;99.90
5759;DHT22;2904;48.788;9.196;2022-09-03T18:22:35;20.30;99.90
5759;DHT22;2904;48.788;9.196;2022-09-03T18:25:24;20.20;99.90
5759;DHT22;2904;48.788;9.196;2022-09-03T18:28:13;20.10;99.90
5759;DHT22;2904;48.788;9.196;2022-09-03T18:30:58;20.10;99.90
5759;DHT22;2904;48.788;9.196;2022-09-03T18:33:42;20.00;99.90
5759;DHT22;2904;48.788;9.196;2022-09-03T18:36:28;19.90;99.90
5759;DHT22;2904;48.788;9.196;2022-09-03T18:39:26;19.90;99.90
5759;DHT22;2904;48.788;9.196;2022-09-03T18:42:34;19.80;99.90
5759;DHT22;2904;48.788;9.196;2022-09-03T18:45:31;19.80;99.90
5759;DHT22;2904;48.788;9.196;2022-09-03T18:52:19;19.80;99.90
5759;DHT22;2904;48.788;9.196;2022-09-03T18:55:35;19.70;99.90
5759;DHT22;2904;48.788;9.196;2022-09-03T19:00:12;19.70;99.90
5759;DHT22;2904;48.788;9.196;2022-09-03T19:03:35;19.70;99.90
5759;DHT22;2904;48.788;9.196;2022-09-03T19:06:59;19.70;99.90
5759;DHT22;2904;48.788;9.196;2022-09-03T19:09:53;19.70;99.90
5759;DHT22;2904;48.788;9.196;2022-09-03T19:21:13;19.50;99.90
5759;DHT22;2904;48.788;9.196;2022-09-03T19:24:03;19.50;99.90
5759;DHT22;2904;48.788;9.196;2022-09-03T19:27:06;19.50;99.90
5759;DHT22;2904;48.788;9.196;2022-09-03T19:30:03;19.40;99.90
5759;DHT22;2904;48.788;9.196;2022-09-03T19:33:12;19.30;99.90
5759;DHT22;2904;48.788;9.196;2022-09-03T19:36:19;19.30;99.90
5759;DHT22;2904;48.788;9.196;2022-09-03T19:39:42;19.30;99.90
5759;DHT22;2904;48.788;9.196;2022-09-03T19:47:44;19.30;99.90
5759;DHT22;2904;48.788;9.196;2022-09-03T19:50:36;19.10;99.90
5759;DHT22;2904;48.788;9.196;2022-09-03T19:53:22;19.20;99.90
5759;DHT22;2904;48.788;9.196;2022-09-03T19:56:22;19.10;99.90
5759;DHT22;2904;48.788;9.196;2022-09-03T19:59:36;19.10;99.90
5759;DHT22;2904;48.788;9.196;2022-09-03T20:02:22;18.90;99.90
5759;DHT22;2904;48.788;9.196;2022-09-03T20:05:10;19.10;99.90
5759;DHT22;2904;48.788;9.196;2022-09-03T20:07:57;19.10;99.90
5759;DHT22;2904;48.788;9.196;2022-09-03T20:10:43;19.00;99.90